sensor_id;sensor_type;location;lat;lon;timestamp;temperature;humidity
35633;DHT22;21754;48.216;-1.628;2022-10-04T00:57:18;22.80;99.90
35633;DHT22;21754;48.216;-1.628;2022-10-04T01:04:47;19.50;99.90
35633;DHT22;21754;48.216;-1.628;2022-10-04T01:07:19;19.50;99.90
35633;DHT22;21754;48.216;-1.628;2022-10-04T01:10:03;19.40;99.90
35633;DHT22;21754;48.216;-1.628;2022-10-04T01:57:50;19.30;99.90
35633;DHT22;21754;48.216;-1.628;2022-10-04T02:00:20;19.10;99.90
35633;DHT22;21754;48.216;-1.628;2022-10-04T02:02:57;19.20;99.90
35633;DHT22;21754;48.216;-1.628;2022-10-04T02:05:32;19.20;99.90
35633;DHT22;21754;48.216;-1.628;2022-10-04T02:08:11;19.20;99.90
35633;DHT22;21754;48.216;-1.628;2022-10-04T02:10:41;19.30;99.90
35633;DHT22;21754;48.216;-1.628;2022-10-04T02:13:09;19.20;99.90
35633;DHT22;21754;48.216;-1.628;2022-10-04T02:15:36;19.20;99.90
35633;DHT22;21754;48.216;-1.628;2022-10-04T02:18:12;19.20;99.90
35633;DHT22;21754;48.216;-1.628;2022-10-04T02:20:39;19.20;99.90
35633;DHT22;21754;48.216;-1.628;2022-10-04T02:23:06;19.30;99.90
35633;DHT22;21754;48.216;-1.628;2022-10-04T02:25:35;19.20;99.90
35633;DHT22;21754;48.216;-1.628;2022-10-04T02:28:01;19.10;99.90
35633;DHT22;21754;48.216;-1.628;2022-10-04T02:30:28;19.10;99.90
35633;DHT22;21754;48.216;-1.628;2022-10-04T02:32:59;19.20;99.90
35633;DHT22;21754;48.216;-1.628;2022-10-04T02:35:45;19.20;99.90
35633;DHT22;21754;48.216;-1.628;2022-10-04T02:38:22;19.20;99.90
35633;DHT22;21754;48.216;-1.628;2022-10-04T02:40:57;19.10;99.90
35633;DHT22;21754;48.216;-1.628;2022-10-04T02:43:32;19.20;99.90
35633;DHT22;21754;48.216;-1.628;2022-10-04T02:46:07;19.20;99.90
35633;DHT22;21754;48.216;-1.628;2022-10-04T02:48:47;19.20;99.90
35633;DHT22;21754;48.216;-1.628;2022-10-04T02:51:37;19.30;99.90
35633;DHT22;21754;48.216;-1.628;2022-10-04T02:54:32;19.30;99.90
35633;DHT22;21754;48.216;-1.628;2022-10-04T02:57:01;19.20;99.90
35633;DHT22;21754;48.216;-1.628;2022-10-04T02:59:29;19.20;99.90
35633;DHT22;21754;48.216;-1.628;2022-10-04T03:02:00;19.20;99.90
35633;DHT22;21754;48.216;-1.628;2022-10-04T03:04:28;19.10;99.90
35633;DHT22;21754;48.216;-1.628;2022-10-04T03:06:55;19.10;99.90
35633;DHT22;21754;48.216;-1.628;2022-10-04T03:09:22;19.10;99.90
35633;DHT22;21754;48.216;-1.628;2022-10-04T03:11:49;19.10;99.90
35633;DHT22;21754;48.216;-1.628;2022-10-04T03:14:19;19.10;99.90
35633;DHT22;21754;48.216;-1.628;2022-10-04T03:16:47;19.20;99.90
35633;DHT22;21754;48.216;-1.628;2022-10-04T03:19:15;19.20;99.90
35633;DHT22;21754;48.216;-1.628;2022-10-04T03:21:44;19.20;99.90
35633;DHT22;21754;48.216;-1.628;2022-10-04T03:24:16;19.20;99.90
35633;DHT22;21754;48.216;-1.628;2022-10-04T03:26:48;19.30;99.90
35633;DHT22;21754;48.216;-1.628;2022-10-04T03:29:16;19.30;99.90
35633;DHT22;21754;48.216;-1.628;2022-10-04T03:31:45;19.30;99.90
35633;DHT22;21754;48.216;-1.628;2022-10-04T03:34:20;19.40;99.90
35633;DHT22;21754;48.216;-1.628;2022-10-04T03:36:48;19.40;99.90
35633;DHT22;21754;48.216;-1.628;2022-10-04T03:39:29;19.40;99.90
35633;DHT22;21754;48.216;-1.628;2022-10-04T03:41:57;19.40;99.90
35633;DHT22;21754;48.216;-1.628;2022-10-04T03:44:23;19.40;99.90
35633;DHT22;21754;48.216;-1.628;2022-10-04T03:46:49;19.40;99.90
35633;DHT22;21754;48.216;-1.628;2022-10-04T03:49:22;19.40;99.90
35633;DHT22;21754;48.216;-1.628;2022-10-04T03:51:50;19.40;99.90
35633;DHT22;21754;48.216;-1.628;2022-10-04T03:54:21;19.40;99.90
35633;DHT22;21754;48.216;-1.628;2022-10-04T03:56:50;19.50;99.90
35633;DHT22;21754;48.216;-1.628;2022-10-04T03:59:16;19.50;99.90
35633;DHT22;21754;48.216;-1.628;2022-10-04T04:01:49;19.50;99.90
35633;DHT22;21754;48.216;-1.628;2022-10-04T04:04:24;19.50;99.90
35633;DHT22;21754;48.216;-1.628;2022-10-04T04:10:02;19.40;99.90
35633;DHT22;21754;48.216;-1.628;2022-10-04T04:12:45;19.40;99.90
35633;DHT22;21754;48.216;-1.628;2022-10-04T04:15:15;19.40;99.90
35633;DHT22;21754;48.216;-1.628;2022-10-04T04:17:51;19.30;99.90
35633;DHT22;21754;48.216;-1.628;2022-10-04T04:20:30;19.30;99.90
35633;DHT22;21754;48.216;-1.628;2022-10-04T04:25:27;19.30;99.90
35633;DHT22;21754;48.216;-1.628;2022-10-04T04:28:00;19.30;99.90
35633;DHT22;21754;48.216;-1.628;2022-10-04T04:30:28;19.30;99.90
35633;DHT22;21754;48.216;-1.628;2022-10-04T04:32:56;19.30;99.90
35633;DHT22;21754;48.216;-1.628;2022-10-04T04:35:32;19.30;99.90
35633;DHT22;21754;48.216;-1.628;2022-10-04T04:40:34;19.30;99.90
35633;DHT22;21754;48.216;-1.628;2022-10-04T04:43:02;19.30;99.90
35633;DHT22;21754;48.216;-1.628;2022-10-04T04:45:29;19.30;99.90
35633;DHT22;21754;48.216;-1.628;2022-10-04T04:47:57;19.30;99.90
35633;DHT22;21754;48.216;-1.628;2022-10-04T04:50:33;19.30;99.90
35633;DHT22;21754;48.216;-1.628;2022-10-04T04:53:28;19.30;99.90
35633;DHT22;21754;48.216;-1.628;2022-10-04T04:56:00;19.30;99.90
35633;DHT22;21754;48.216;-1.628;2022-10-04T04:58:35;19.30;99.90
35633;DHT22;21754;48.216;-1.628;2022-10-04T05:03:32;19.30;99.90
35633;DHT22;21754;48.216;-1.628;2022-10-04T05:05:59;19.30;99.90
35633;DHT22;21754;48.216;-1.628;2022-10-04T05:08:30;19.30;99.90
35633;DHT22;21754;48.216;-1.628;2022-10-04T05:13:41;19.20;99.90
35633;DHT22;21754;48.216;-1.628;2022-10-04T05:16:18;19.10;99.90
35633;DHT22;21754;48.216;-1.628;2022-10-04T05:18:44;19.10;99.90
35633;DHT22;21754;48.216;-1.628;2022-10-04T05:21:30;19.10;99.90
35633;DHT22;21754;48.216;-1.628;2022-10-04T05:23:58;19.10;99.90
35633;DHT22;21754;48.216;-1.628;2022-10-04T05:26:31;19.10;99.90
35633;DHT22;21754;48.216;-1.628;2022-10-04T05:29:01;19.20;99.90
35633;DHT22;21754;48.216;-1.628;2022-10-04T05:31:48;19.20;99.90
35633;DHT22;21754;48.216;-1.628;2022-10-04T05:34:24;19.20;99.90
35633;DHT22;21754;48.216;-1.628;2022-10-04T05:42:00;19.30;99.90
35633;DHT22;21754;48.216;-1.628;2022-10-04T05:44:35;19.30;99.90
35633;DHT22;21754;48.216;-1.628;2022-10-04T05:47:05;19.30;99.90
35633;DHT22;21754;48.216;-1.628;2022-10-04T05:49:42;19.30;99.90
35633;DHT22;21754;48.216;-1.628;2022-10-04T05:58:18;19.30;99.90
35633;DHT22;21754;48.216;-1.628;2022-10-04T06:06:30;19.20;99.90
35633;DHT22;21754;48.216;-1.628;2022-10-04T06:09:19;19.20;99.90
35633;DHT22;21754;48.216;-1.628;2022-10-04T06:12:13;19.20;99.90
35633;DHT22;21754;48.216;-1.628;2022-10-04T06:15:04;19.30;99.90
35633;DHT22;21754;48.216;-1.628;2022-10-04T06:17:55;19.30;99.90
35633;DHT22;21754;48.216;-1.628;2022-10-04T06:23:27;19.20;99.90
35633;DHT22;21754;48.216;-1.628;2022-10-04T06:26:04;19.20;99.90
35633;DHT22;21754;48.216;-1.628;2022-10-04T06:28:41;19.20;99.90
35633;DHT22;21754;48.216;-1.628;2022-10-04T06:31:39;19.20;99.90
35633;DHT22;21754;48.216;-1.628;2022-10-04T06:42:53;19.20;99.90
35633;DHT22;21754;48.216;-1.628;2022-10-04T06:50:53;19.30;99.90
35633;DHT22;21754;48.216;-1.628;2022-10-04T07:03:56;19.40;99.90
35633;DHT22;21754;48.216;-1.628;2022-10-04T07:06:35;19.40;99.90
35633;DHT22;21754;48.216;-1.628;2022-10-04T07:09:03;19.40;99.90
35633;DHT22;21754;48.216;-1.628;2022-10-04T07:11:44;19.40;99.90
35633;DHT22;21754;48.216;-1.628;2022-10-04T07:14:19;19.40;99.90
35633;DHT22;21754;48.216;-1.628;2022-10-04T07:17:02;19.40;99.90
35633;DHT22;21754;48.216;-1.628;2022-10-04T07:19:36;19.40;99.90
35633;DHT22;21754;48.216;-1.628;2022-10-04T07:22:15;19.40;99.90
35633;DHT22;21754;48.216;-1.628;2022-10-04T07:27:17;19.40;99.90
35633;DHT22;21754;48.216;-1.628;2022-10-04T07:29:45;19.40;99.90
35633;DHT22;21754;48.216;-1.628;2022-10-04T07:32:22;19.40;99.90
35633;DHT22;21754;48.216;-1.628;2022-10-04T07:37:24;19.50;99.90
35633;DHT22;21754;48.216;-1.628;2022-10-04T07:40:05;19.50;99.90
35633;DHT22;21754;48.216;-1.628;2022-10-04T07:42:36;19.60;99.90
35633;DHT22;21754;48.216;-1.628;2022-10-04T07:45:20;19.50;99.90
35633;DHT22;21754;48.216;-1.628;2022-10-04T07:47:47;19.60;99.90
35633;DHT22;21754;48.216;-1.628;2022-10-04T07:50:34;19.70;99.90
35633;DHT22;21754;48.216;-1.628;2022-10-04T07:53:04;19.70;99.90
35633;DHT22;21754;48.216;-1.628;2022-10-04T07:56:37;19.80;99.90
35633;DHT22;21754;48.216;-1.628;2022-10-04T07:58:36;19.80;99.90
35633;DHT22;21754;48.216;-1.628;2022-10-04T08:01:06;19.80;99.90
35633;DHT22;21754;48.216;-1.628;2022-10-04T08:06:40;19.80;99.90
35633;DHT22;21754;48.216;-1.628;2022-10-04T08:25:22;20.00;99.90
35633;DHT22;21754;48.216;-1.628;2022-10-04T08:34:32;20.00;99.90
35633;DHT22;21754;48.216;-1.628;2022-10-04T08:37:07;20.10;99.90
35633;DHT22;21754;48.216;-1.628;2022-10-04T08:42:50;19.90;99.90
35633;DHT22;21754;48.216;-1.628;2022-10-04T08:45:30;19.70;99.90
35633;DHT22;21754;48.216;-1.628;2022-10-04T08:48:21;19.50;99.90
35633;DHT22;21754;48.216;-1.628;2022-10-04T08:57:11;19.90;99.90
35633;DHT22;21754;48.216;-1.628;2022-10-04T09:14:54;20.70;99.90
35633;DHT22;21754;48.216;-1.628;2022-10-04T09:22:45;20.70;99.90
35633;DHT22;21754;48.216;-1.628;2022-10-04T10:14:16;21.70;99.90
35633;DHT22;21754;48.216;-1.628;2022-10-04T10:25:26;21.80;99.90
